sensor_id;sensor_type;location;lat;lon;timestamp;pressure;altitude;pressure_sealevel;temperature;humidity
48200;BME280;33990;44.602;10.976;2023-08-21T00:01:21;101470.78;;;28.02;55.12
48200;BME280;33990;44.602;10.976;2023-08-21T00:03:48;101468.91;;;28.03;54.80
48200;BME280;33990;44.602;10.976;2023-08-21T00:06:16;101476.06;;;28.04;55.05
48200;BME280;33990;44.602;10.976;2023-08-21T00:08:43;101475.19;;;28.03;55.13
48200;BME280;33990;44.602;10.976;2023-08-21T00:11:10;101477.91;;;28.03;54.75
48200;BME280;33990;44.602;10.976;2023-08-21T00:13:38;101473.34;;;28.04;55.14
48200;BME280;33990;44.602;10.976;2023-08-21T00:16:05;101479.63;;;28.04;55.02
48200;BME280;33990;44.602;10.976;2023-08-21T00:18:33;101479.44;;;28.06;55.13
48200;BME280;33990;44.602;10.976;2023-08-21T00:21:01;101476.72;;;28.06;55.25
48200;BME280;33990;44.602;10.976;2023-08-21T00:23:28;101475.88;;;28.05;54.83
48200;BME280;33990;44.602;10.976;2023-08-21T00:25:56;101480.28;;;28.06;54.73
48200;BME280;33990;44.602;10.976;2023-08-21T00:28:23;101472.13;;;28.06;55.10
48200;BME280;33990;44.602;10.976;2023-08-21T00:30:50;101470.09;;;28.08;55.11
48200;BME280;33990;44.602;10.976;2023-08-21T00:33:18;101474.50;;;28.09;54.75
48200;BME280;33990;44.602;10.976;2023-08-21T00:35:45;101480.78;;;28.10;55.24
48200;BME280;33990;44.602;10.976;2023-08-21T00:38:13;101478.06;;;28.10;54.96
48200;BME280;33990;44.602;10.976;2023-08-21T00:40:41;101475.19;;;28.12;54.82
48200;BME280;33990;44.602;10.976;2023-08-21T00:43:08;101467.03;;;28.12;55.09
48200;BME280;33990;44.602;10.976;2023-08-21T00:45:37;101477.91;;;28.12;54.87
48200;BME280;33990;44.602;10.976;2023-08-21T00:48:08;101469.91;;;28.10;54.76
48200;BME280;33990;44.602;10.976;2023-08-21T00:50:37;101470.59;;;28.12;55.16
48200;BME280;33990;44.602;10.976;2023-08-21T00:53:05;101476.03;;;28.12;55.06
48200;BME280;33990;44.602;10.976;2023-08-21T00:55:34;101467.88;;;28.12;54.72
48200;BME280;33990;44.602;10.976;2023-08-21T00:58:02;101468.72;;;28.13;54.64
48200;BME280;33990;44.602;10.976;2023-08-21T01:00:30;101466.00;;;28.13;55.06
48200;BME280;33990;44.602;10.976;2023-08-21T01:02:58;101467.69;;;28.14;54.70
48200;BME280;33990;44.602;10.976;2023-08-21T01:05:25;101464.97;;;28.14;55.15
48200;BME280;33990;44.602;10.976;2023-08-21T01:08:03;101471.09;;;28.16;54.79
48200;BME280;33990;44.602;10.976;2023-08-21T01:10:43;101466.66;;;28.15;54.89
48200;BME280;33990;44.602;10.976;2023-08-21T01:16:10;101472.78;;;28.17;55.05
48200;BME280;33990;44.602;10.976;2023-08-21T01:18:38;101476.53;;;28.16;54.74
48200;BME280;33990;44.602;10.976;2023-08-21T01:21:07;101475.50;;;28.17;54.92
48200;BME280;33990;44.602;10.976;2023-08-21T01:23:36;101477.19;;;28.18;54.89
48200;BME280;33990;44.602;10.976;2023-08-21T01:26:04;101477.19;;;28.18;55.23
48200;BME280;33990;44.602;10.976;2023-08-21T01:28:32;101470.72;;;28.19;54.90
48200;BME280;33990;44.602;10.976;2023-08-21T01:31:23;101480.63;;;28.20;55.26
48200;BME280;33990;44.602;10.976;2023-08-21T01:33:55;101479.72;;;28.19;55.11
48200;BME280;33990;44.602;10.976;2023-08-21T01:36:25;101486.91;;;28.20;54.97
48200;BME280;33990;44.602;10.976;2023-08-21T01:38:53;101484.19;;;28.20;55.16
48200;BME280;33990;44.602;10.976;2023-08-21T01:41:26;101494.88;;;28.22;54.96
48200;BME280;33990;44.602;10.976;2023-08-21T01:43:54;101485.88;;;28.21;55.24
48200;BME280;33990;44.602;10.976;2023-08-21T01:46:21;101484.00;;;28.22;54.94
48200;BME280;33990;44.602;10.976;2023-08-21T01:48:49;101493.84;;;28.23;55.15
48200;BME280;33990;44.602;10.976;2023-08-21T01:51:16;101494.03;;;28.21;55.15
48200;BME280;33990;44.602;10.976;2023-08-21T01:53:44;101492.16;;;28.22;55.04
48200;BME280;33990;44.602;10.976;2023-08-21T01:56:11;101493.84;;;28.23;55.38
48200;BME280;33990;44.602;10.976;2023-08-21T01:58:39;101487.56;;;28.22;55.27
48200;BME280;33990;44.602;10.976;2023-08-21T02:01:06;101495.56;;;28.24;55.07
48200;BME280;33990;44.602;10.976;2023-08-21T02:03:34;101498.28;;;28.24;55.04
48200;BME280;33990;44.602;10.976;2023-08-21T02:06:01;101492.84;;;28.24;55.01
48200;BME280;33990;44.602;10.976;2023-08-21T02:08:33;101486.53;;;28.23;55.24
48200;BME280;33990;44.602;10.976;2023-08-21T02:11:01;101492.84;;;28.24;55.31
48200;BME280;33990;44.602;10.976;2023-08-21T02:13:29;101494.53;;;28.25;55.13
48200;BME280;33990;44.602;10.976;2023-08-21T02:15:56;101498.13;;;28.25;55.45
48200;BME280;33990;44.602;10.976;2023-08-21T02:18:23;101497.25;;;28.25;55.50
48200;BME280;33990;44.602;10.976;2023-08-21T02:20:51;101495.38;;;28.25;55.39
48200;BME280;33990;44.602;10.976;2023-08-21T02:23:18;101492.66;;;28.25;55.06
48200;BME280;33990;44.602;10.976;2023-08-21T02:25:46;101495.38;;;28.25;55.52
48200;BME280;33990;44.602;10.976;2023-08-21T02:28:13;101497.06;;;28.26;55.17
48200;BME280;33990;44.602;10.976;2023-08-21T02:30:41;101491.63;;;28.26;55.27
48200;BME280;33990;44.602;10.976;2023-08-21T02:33:09;101497.06;;;28.26;55.56
48200;BME280;33990;44.602;10.976;2023-08-21T02:35:38;101483.31;;;28.28;55.16
48200;BME280;33990;44.602;10.976;2023-08-21T02:38:05;101492.47;;;28.27;55.06
48200;BME280;33990;44.602;10.976;2023-08-21T02:40:35;101492.47;;;28.27;55.30
48200;BME280;33990;44.602;10.976;2023-08-21T02:43:03;101483.31;;;28.28;55.04
48200;BME280;33990;44.602;10.976;2023-08-21T02:45:30;101487.72;;;28.29;55.30
48200;BME280;33990;44.602;10.976;2023-08-21T02:47:58;101488.75;;;28.28;55.28
48200;BME280;33990;44.602;10.976;2023-08-21T02:50:25;101485.00;;;28.29;55.11
48200;BME280;33990;44.602;10.976;2023-08-21T02:52:53;101482.44;;;28.27;55.47
48200;BME280;33990;44.602;10.976;2023-08-21T02:55:20;101485.00;;;28.29;55.19
48200;BME280;33990;44.602;10.976;2023-08-21T02:57:48;101481.25;;;28.30;55.53
48200;BME280;33990;44.602;10.976;2023-08-21T03:00:15;101479.56;;;28.29;55.35
48200;BME280;33990;44.602;10.976;2023-08-21T03:02:43;101481.25;;;28.30;55.12
48200;BME280;33990;44.602;10.976;2023-08-21T03:05:11;101483.97;;;28.30;55.35
48200;BME280;33990;44.602;10.976;2023-08-21T03:07:40;101482.94;;;28.31;55.34
48200;BME280;33990;44.602;10.976;2023-08-21T03:10:08;101488.38;;;28.31;55.59
48200;BME280;33990;44.602;10.976;2023-08-21T03:12:35;101484.66;;;28.32;55.11
48200;BME280;33990;44.602;10.976;2023-08-21T03:15:04;101488.38;;;28.31;55.66
48200;BME280;33990;44.602;10.976;2023-08-21T03:17:32;101483.78;;;28.31;55.54
48200;BME280;33990;44.602;10.976;2023-08-21T03:19:59;101492.81;;;28.32;55.58
48200;BME280;33990;44.602;10.976;2023-08-21T03:22:27;101495.53;;;28.32;55.56
48200;BME280;33990;44.602;10.976;2023-08-21T03:24:54;101490.09;;;28.32;55.49
48200;BME280;33990;44.602;10.976;2023-08-21T03:27:22;101484.66;;;28.32;55.18
48200;BME280;33990;44.602;10.976;2023-08-21T03:29:49;101480.91;;;28.33;55.02
48200;BME280;33990;44.602;10.976;2023-08-21T03:32:17;101485.66;;;28.31;55.05
48200;BME280;33990;44.602;10.976;2023-08-21T03:34:44;101488.38;;;28.31;55.12
48200;BME280;33990;44.602;10.976;2023-08-21T03:37:12;101482.09;;;28.30;54.81
48200;BME280;33990;44.602;10.976;2023-08-21T03:39:40;101482.94;;;28.31;55.00
48200;BME280;33990;44.602;10.976;2023-08-21T03:42:10;101487.53;;;28.30;54.84
48200;BME280;33990;44.602;10.976;2023-08-21T03:44:39;101483.78;;;28.31;54.62
48200;BME280;33990;44.602;10.976;2023-08-21T03:47:07;101486.69;;;28.30;54.82
48200;BME280;33990;44.602;10.976;2023-08-21T03:49:44;101482.09;;;28.30;54.64
48200;BME280;33990;44.602;10.976;2023-08-21T03:52:12;101486.69;;;28.30;54.56
48200;BME280;33990;44.602;10.976;2023-08-21T03:54:39;101481.25;;;28.30;54.41
48200;BME280;33990;44.602;10.976;2023-08-21T03:57:08;101492.13;;;28.30;54.13
48200;BME280;33990;44.602;10.976;2023-08-21T03:59:37;101490.25;;;28.30;54.07
48200;BME280;33990;44.602;10.976;2023-08-21T04:02:05;101497.59;;;28.30;54.32
48200;BME280;33990;44.602;10.976;2023-08-21T04:04:32;101494.84;;;28.30;53.86
48200;BME280;33990;44.602;10.976;2023-08-21T04:07:00;101492.97;;;28.30;54.09
48200;BME280;33990;44.602;10.976;2023-08-21T04:09:27;101492.13;;;28.30;53.82
48200;BME280;33990;44.602;10.976;2023-08-21T04:11:54;101497.59;;;28.30;54.13
48200;BME280;33990;44.602;10.976;2023-08-21T04:14:22;101498.44;;;28.30;54.07
48200;BME280;33990;44.602;10.976;2023-08-21T04:16:49;101499.28;;;28.31;53.98
48200;BME280;33990;44.602;10.976;2023-08-21T04:19:19;101498.44;;;28.30;53.68
48200;BME280;33990;44.602;10.976;2023-08-21T04:21:47;101503.03;;;28.30;53.73
48200;BME280;33990;44.602;10.976;2023-08-21T04:24:14;101503.88;;;28.30;53.68
48200;BME280;33990;44.602;10.976;2023-08-21T04:26:41;101497.59;;;28.30;53.96
48200;BME280;33990;44.602;10.976;2023-08-21T04:29:08;101500.13;;;28.31;53.81
48200;BME280;33990;44.602;10.976;2023-08-21T04:31:37;101495.69;;;28.30;53.75
48200;BME280;33990;44.602;10.976;2023-08-21T04:34:04;101500.31;;;28.30;53.81
48200;BME280;33990;44.602;10.976;2023-08-21T04:36:32;101503.88;;;28.30;53.58
48200;BME280;33990;44.602;10.976;2023-08-21T04:39:00;101502.84;;;28.31;53.88
48200;BME280;33990;44.602;10.976;2023-08-21T04:41:28;101498.44;;;28.30;53.81
48200;BME280;33990;44.602;10.976;2023-08-21T04:43:55;101502.00;;;28.31;53.66
48200;BME280;33990;44.602;10.976;2023-08-21T04:46:24;101500.13;;;28.31;53.93
48200;BME280;33990;44.602;10.976;2023-08-21T04:48:52;101500.13;;;28.31;53.62
48200;BME280;33990;44.602;10.976;2023-08-21T04:51:19;101509.16;;;28.32;53.45
48200;BME280;33990;44.602;10.976;2023-08-21T04:53:47;101511.88;;;28.32;53.41
48200;BME280;33990;44.602;10.976;2023-08-21T04:56:19;101506.44;;;28.32;53.39
48200;BME280;33990;44.602;10.976;2023-08-21T04:58:47;101505.56;;;28.31;53.68
48200;BME280;33990;44.602;10.976;2023-08-21T05:01:16;101511.88;;;28.32;53.52
48200;BME280;33990;44.602;10.976;2023-08-21T05:03:47;101510.16;;;28.31;53.68
48200;BME280;33990;44.602;10.976;2023-08-21T05:06:15;101515.59;;;28.31;53.71
48200;BME280;33990;44.602;10.976;2023-08-21T05:08:44;101517.50;;;28.30;53.74
48200;BME280;33990;44.602;10.976;2023-08-21T05:11:11;101515.59;;;28.31;53.55
48200;BME280;33990;44.602;10.976;2023-08-21T05:13:41;101518.34;;;28.31;53.37
48200;BME280;33990;44.602;10.976;2023-08-21T05:16:11;101528.22;;;28.32;53.78
48200;BME280;33990;44.602;10.976;2023-08-21T05:18:40;101527.19;;;28.33;53.58
48200;BME280;33990;44.602;10.976;2023-08-21T05:21:07;101528.38;;;28.30;53.69
48200;BME280;33990;44.602;10.976;2023-08-21T05:23:36;101523.78;;;28.31;53.32
48200;BME280;33990;44.602;10.976;2023-08-21T05:26:07;101529.22;;;28.31;53.36
48200;BME280;33990;44.602;10.976;2023-08-21T05:28:34;101539.97;;;28.32;53.44
48200;BME280;33990;44.602;10.976;2023-08-21T05:31:02;101533.66;;;28.32;53.42
48200;BME280;33990;44.602;10.976;2023-08-21T05:33:41;101530.06;;;28.31;53.56
48200;BME280;33990;44.602;10.976;2023-08-21T05:36:09;101541.84;;;28.32;53.32
48200;BME280;33990;44.602;10.976;2023-08-21T05:38:37;101532.78;;;28.31;53.76
48200;BME280;33990;44.602;10.976;2023-08-21T05:41:05;101539.97;;;28.32;53.37
48200;BME280;33990;44.602;10.976;2023-08-21T05:43:33;101546.25;;;28.33;53.61
48200;BME280;33990;44.602;10.976;2023-08-21T05:46:01;101538.94;;;28.33;53.93
48200;BME280;33990;44.602;10.976;2023-08-21T05:48:29;101541.66;;;28.33;53.94
48200;BME280;33990;44.602;10.976;2023-08-21T05:50:56;101542.50;;;28.34;53.50
48200;BME280;33990;44.602;10.976;2023-08-21T05:53:25;101548.78;;;28.34;54.13
48200;BME280;33990;44.602;10.976;2023-08-21T05:55:53;101545.03;;;28.35;53.81
48200;BME280;33990;44.602;10.976;2023-08-21T05:58:21;101546.06;;;28.34;53.93
48200;BME280;33990;44.602;10.976;2023-08-21T06:00:50;101554.13;;;28.36;54.19
48200;BME280;33990;44.602;10.976;2023-08-21T06:03:17;101549.63;;;28.35;54.14
48200;BME280;33990;44.602;10.976;2023-08-21T06:06:05;101552.25;;;28.37;53.74
48200;BME280;33990;44.602;10.976;2023-08-21T06:08:32;101546.59;;;28.38;53.90
48200;BME280;33990;44.602;10.976;2023-08-21T06:11:00;101551.22;;;28.38;53.96
48200;BME280;33990;44.602;10.976;2023-08-21T06:13:27;101547.44;;;28.39;54.18
48200;BME280;33990;44.602;10.976;2023-08-21T06:15:55;101552.06;;;28.38;53.88
48200;BME280;33990;44.602;10.976;2023-08-21T06:18:24;101559.03;;;28.41;53.92
48200;BME280;33990;44.602;10.976;2023-08-21T06:20:54;101561.56;;;28.42;53.89
48200;BME280;33990;44.602;10.976;2023-08-21T06:23:22;101555.28;;;28.42;53.67
48200;BME280;33990;44.602;10.976;2023-08-21T06:25:50;101556.13;;;28.42;53.95
48200;BME280;33990;44.602;10.976;2023-08-21T06:28:20;101552.38;;;28.43;54.33
48200;BME280;33990;44.602;10.976;2023-08-21T06:30:55;101564.09;;;28.44;54.66
48200;BME280;33990;44.602;10.976;2023-08-21T06:33:24;101562.41;;;28.43;54.35
48200;BME280;33990;44.602;10.976;2023-08-21T06:35:52;101568.72;;;28.43;54.59
48200;BME280;33990;44.602;10.976;2023-08-21T06:38:19;101568.72;;;28.43;54.83
48200;BME280;33990;44.602;10.976;2023-08-21T06:40:46;101572.28;;;28.44;54.56
48200;BME280;33990;44.602;10.976;2023-08-21T06:43:14;101569.56;;;28.44;54.56
48200;BME280;33990;44.602;10.976;2023-08-21T06:45:46;101567.88;;;28.43;54.67
48200;BME280;33990;44.602;10.976;2023-08-21T06:48:14;101576.88;;;28.43;54.55
48200;BME280;33990;44.602;10.976;2023-08-21T06:50:41;101574.16;;;28.43;54.73
48200;BME280;33990;44.602;10.976;2023-08-21T06:53:09;101570.78;;;28.41;54.89
48200;BME280;33990;44.602;10.976;2023-08-21T06:55:36;101568.72;;;28.43;55.31
48200;BME280;33990;44.602;10.976;2023-08-21T06:58:03;101573.16;;;28.44;54.62
48200;BME280;33990;44.602;10.976;2023-08-21T07:00:31;101573.16;;;28.44;55.01
48200;BME280;33990;44.602;10.976;2023-08-21T07:02:58;101575.88;;;28.44;54.81
48200;BME280;33990;44.602;10.976;2023-08-21T07:05:26;101575.88;;;28.44;54.88
48200;BME280;33990;44.602;10.976;2023-08-21T07:07:53;101569.56;;;28.44;54.88
48200;BME280;33990;44.602;10.976;2023-08-21T07:10:22;101570.44;;;28.44;54.06
48200;BME280;33990;44.602;10.976;2023-08-21T07:12:49;101574.84;;;28.45;53.86
48200;BME280;33990;44.602;10.976;2023-08-21T07:15:17;101573.81;;;28.46;54.19
48200;BME280;33990;44.602;10.976;2023-08-21T07:17:44;101574.66;;;28.47;53.91
48200;BME280;33990;44.602;10.976;2023-08-21T07:20:11;101580.13;;;28.47;53.60
48200;BME280;33990;44.602;10.976;2023-08-21T07:22:39;101578.41;;;28.46;53.48
48200;BME280;33990;44.602;10.976;2023-08-21T07:25:07;101573.81;;;28.46;53.54
48200;BME280;33990;44.602;10.976;2023-08-21T07:27:35;101571.94;;;28.47;53.85
48200;BME280;33990;44.602;10.976;2023-08-21T07:30:02;101580.97;;;28.47;53.58
48200;BME280;33990;44.602;10.976;2023-08-21T07:32:30;101588.97;;;28.49;53.17
48200;BME280;33990;44.602;10.976;2023-08-21T07:34:57;101569.91;;;28.49;53.22
48200;BME280;33990;44.602;10.976;2023-08-21T07:37:25;101569.72;;;28.50;53.29
48200;BME280;33990;44.602;10.976;2023-08-21T07:39:53;101573.13;;;28.52;53.35
48200;BME280;33990;44.602;10.976;2023-08-21T07:42:20;101580.28;;;28.53;53.59
48200;BME280;33990;44.602;10.976;2023-08-21T07:44:48;101577.22;;;28.56;54.00
48200;BME280;33990;44.602;10.976;2023-08-21T07:47:16;101577.88;;;28.58;53.72
48200;BME280;33990;44.602;10.976;2023-08-21T07:49:44;101576.84;;;28.59;53.62
48200;BME280;33990;44.602;10.976;2023-08-21T07:52:11;101570.19;;;28.62;53.68
48200;BME280;33990;44.602;10.976;2023-08-21T07:54:38;101571.03;;;28.63;53.51
48200;BME280;33990;44.602;10.976;2023-08-21T07:57:06;101575.31;;;28.65;53.61
48200;BME280;33990;44.602;10.976;2023-08-21T07:59:33;101569.66;;;28.67;53.53
48200;BME280;33990;44.602;10.976;2023-08-21T08:02:01;101573.06;;;28.69;53.28
48200;BME280;33990;44.602;10.976;2023-08-21T08:04:30;101575.63;;;28.70;53.15
48200;BME280;33990;44.602;10.976;2023-08-21T08:06:57;101571.00;;;28.71;53.17
48200;BME280;33990;44.602;10.976;2023-08-21T08:09:25;101572.53;;;28.73;53.25
48200;BME280;33990;44.602;10.976;2023-08-21T08:11:52;101573.19;;;28.75;53.73
48200;BME280;33990;44.602;10.976;2023-08-21T08:14:19;101570.31;;;28.77;53.46
48200;BME280;33990;44.602;10.976;2023-08-21T08:16:47;101571.81;;;28.79;53.60
48200;BME280;33990;44.602;10.976;2023-08-21T08:19:14;101568.94;;;28.81;53.71
48200;BME280;33990;44.602;10.976;2023-08-21T08:21:42;101568.94;;;28.81;53.65
48200;BME280;33990;44.602;10.976;2023-08-21T08:24:09;101561.59;;;28.81;54.15
48200;BME280;33990;44.602;10.976;2023-08-21T08:26:37;101568.56;;;28.84;54.08
48200;BME280;33990;44.602;10.976;2023-08-21T08:29:04;101565.00;;;28.83;53.76
48200;BME280;33990;44.602;10.976;2023-08-21T08:31:32;101563.09;;;28.84;53.30
48200;BME280;33990;44.602;10.976;2023-08-21T08:33:59;101566.53;;;28.86;53.09
48200;BME280;33990;44.602;10.976;2023-08-21T08:36:27;101557.31;;;28.87;53.19
48200;BME280;33990;44.602;10.976;2023-08-21T08:38:54;101561.72;;;28.88;52.97
48200;BME280;33990;44.602;10.976;2023-08-21T08:41:38;101567.88;;;28.90;53.03
48200;BME280;33990;44.602;10.976;2023-08-21T08:44:07;101559.50;;;28.92;52.97
48200;BME280;33990;44.602;10.976;2023-08-21T08:46:35;101566.47;;;28.94;53.20
48200;BME280;33990;44.602;10.976;2023-08-21T08:49:03;101561.03;;;28.94;53.10
48200;BME280;33990;44.602;10.976;2023-08-21T08:51:33;101550.78;;;28.96;52.83
48200;BME280;33990;44.602;10.976;2023-08-21T08:54:02;101550.66;;;28.98;52.88
48200;BME280;33990;44.602;10.976;2023-08-21T08:56:31;101560.34;;;29.00;53.26
48200;BME280;33990;44.602;10.976;2023-08-21T08:58:58;101563.75;;;29.02;53.04
48200;BME280;33990;44.602;10.976;2023-08-21T09:01:25;101549.28;;;29.02;53.15
48200;BME280;33990;44.602;10.976;2023-08-21T09:03:53;101543.63;;;29.03;53.31
48200;BME280;33990;44.602;10.976;2023-08-21T09:06:21;101550.97;;;29.03;53.05
48200;BME280;33990;44.602;10.976;2023-08-21T09:08:55;101550.78;;;29.04;53.55
48200;BME280;33990;44.602;10.976;2023-08-21T09:11:23;101547.19;;;29.04;53.37
48200;BME280;33990;44.602;10.976;2023-08-21T09:13:53;101548.91;;;29.05;53.60
48200;BME280;33990;44.602;10.976;2023-08-21T09:16:21;101547.03;;;29.05;53.37
48200;BME280;33990;44.602;10.976;2023-08-21T09:18:50;101544.13;;;29.07;53.21
48200;BME280;33990;44.602;10.976;2023-08-21T09:21:18;101546.00;;;29.06;53.54
48200;BME280;33990;44.602;10.976;2023-08-21T09:23:47;101541.59;;;29.05;53.77
48200;BME280;33990;44.602;10.976;2023-08-21T09:26:22;101536.78;;;29.07;53.52
48200;BME280;33990;44.602;10.976;2023-08-21T09:28:51;101537.47;;;29.10;53.51
48200;BME280;33990;44.602;10.976;2023-08-21T09:31:23;101542.06;;;29.09;53.68
48200;BME280;33990;44.602;10.976;2023-08-21T09:33:58;101543.78;;;29.10;53.56
48200;BME280;33990;44.602;10.976;2023-08-21T09:36:27;101540.19;;;29.10;53.51
48200;BME280;33990;44.602;10.976;2023-08-21T09:38:54;101534.91;;;29.08;53.40
48200;BME280;33990;44.602;10.976;2023-08-21T09:41:23;101532.38;;;29.06;53.74
48200;BME280;33990;44.602;10.976;2023-08-21T09:43:51;101529.66;;;29.06;53.56
48200;BME280;33990;44.602;10.976;2023-08-21T09:46:25;101524.00;;;29.08;53.52
48200;BME280;33990;44.602;10.976;2023-08-21T09:48:54;101523.16;;;29.07;53.50
48200;BME280;33990;44.602;10.976;2023-08-21T09:51:21;101523.00;;;29.09;53.87
48200;BME280;33990;44.602;10.976;2023-08-21T09:53:49;101521.13;;;29.10;53.54
48200;BME280;33990;44.602;10.976;2023-08-21T09:56:18;101510.84;;;29.12;53.58
48200;BME280;33990;44.602;10.976;2023-08-21T09:58:50;101513.44;;;29.13;53.36
48200;BME280;33990;44.602;10.976;2023-08-21T10:01:20;101515.28;;;29.13;53.67
48200;BME280;33990;44.602;10.976;2023-08-21T10:03:49;101508.97;;;29.12;53.54
48200;BME280;33990;44.602;10.976;2023-08-21T10:06:17;101502.69;;;29.12;53.41
48200;BME280;33990;44.602;10.976;2023-08-21T10:08:53;101505.25;;;29.13;53.31
48200;BME280;33990;44.602;10.976;2023-08-21T10:11:21;101509.81;;;29.13;53.12
48200;BME280;33990;44.602;10.976;2023-08-21T10:13:50;101506.75;;;29.16;53.00
48200;BME280;33990;44.602;10.976;2023-08-21T10:16:19;101509.31;;;29.17;52.82
48200;BME280;33990;44.602;10.976;2023-08-21T10:18:48;101504.69;;;29.18;53.06
48200;BME280;33990;44.602;10.976;2023-08-21T10:21:21;101500.09;;;29.18;53.04
48200;BME280;33990;44.602;10.976;2023-08-21T10:23:51;101498.22;;;29.19;53.29
48200;BME280;33990;44.602;10.976;2023-08-21T10:26:20;101490.88;;;29.19;53.38
48200;BME280;33990;44.602;10.976;2023-08-21T10:28:54;101490.69;;;29.21;53.98
48200;BME280;33990;44.602;10.976;2023-08-21T10:31:36;101486.47;;;29.18;55.76
48200;BME280;33990;44.602;10.976;2023-08-21T10:34:11;101487.50;;;29.17;56.32
48200;BME280;33990;44.602;10.976;2023-08-21T10:39:23;101487.00;;;29.14;57.35
48200;BME280;33990;44.602;10.976;2023-08-21T10:42:04;101485.47;;;29.11;57.55
48200;BME280;33990;44.602;10.976;2023-08-21T10:44:36;101484.81;;;29.09;57.84
48200;BME280;33990;44.602;10.976;2023-08-21T10:49:55;101471.53;;;29.06;58.03
48200;BME280;33990;44.602;10.976;2023-08-21T10:52:43;101478.88;;;29.05;58.47
48200;BME280;33990;44.602;10.976;2023-08-21T10:55:15;101470.88;;;29.04;58.74
48200;BME280;33990;44.602;10.976;2023-08-21T10:57:46;101475.47;;;29.03;58.67
48200;BME280;33990;44.602;10.976;2023-08-21T11:00:15;101466.44;;;29.03;58.84
48200;BME280;33990;44.602;10.976;2023-08-21T11:02:49;101471.06;;;29.02;59.09
48200;BME280;33990;44.602;10.976;2023-08-21T11:05:17;101473.78;;;29.02;59.37
48200;BME280;33990;44.602;10.976;2023-08-21T11:07:48;101461.84;;;29.03;60.09
48200;BME280;33990;44.602;10.976;2023-08-21T11:10:17;101466.44;;;29.03;60.21
48200;BME280;33990;44.602;10.976;2023-08-21T11:12:53;101465.59;;;29.02;60.48
48200;BME280;33990;44.602;10.976;2023-08-21T11:15:24;101463.72;;;29.03;60.36
48200;BME280;33990;44.602;10.976;2023-08-21T11:17:59;101460.16;;;29.02;60.54
48200;BME280;33990;44.602;10.976;2023-08-21T11:20:32;101451.28;;;29.00;60.64
48200;BME280;33990;44.602;10.976;2023-08-21T11:23:01;101463.91;;;29.01;60.67
48200;BME280;33990;44.602;10.976;2023-08-21T11:25:30;101458.63;;;29.00;60.96
48200;BME280;33990;44.602;10.976;2023-08-21T11:27:58;101452.16;;;29.01;60.72
48200;BME280;33990;44.602;10.976;2023-08-21T11:30:25;101453.00;;;29.01;61.16
48200;BME280;33990;44.602;10.976;2023-08-21T11:33:09;101448.56;;;29.00;61.38
48200;BME280;33990;44.602;10.976;2023-08-21T11:35:38;101452.16;;;29.01;61.53
48200;BME280;33990;44.602;10.976;2023-08-21T11:38:06;101452.16;;;29.01;61.60
48200;BME280;33990;44.602;10.976;2023-08-21T11:40:40;101447.72;;;29.00;61.76
48200;BME280;33990;44.602;10.976;2023-08-21T11:43:08;101449.59;;;28.99;61.85
48200;BME280;33990;44.602;10.976;2023-08-21T11:45:36;101454.41;;;28.97;61.84
48200;BME280;33990;44.602;10.976;2023-08-21T11:48:23;101446.34;;;28.96;61.54
48200;BME280;33990;44.602;10.976;2023-08-21T11:50:50;101447.41;;;28.95;61.89
48200;BME280;33990;44.602;10.976;2023-08-21T11:56:09;101443.81;;;28.94;61.88
48200;BME280;33990;44.602;10.976;2023-08-21T11:58:41;101440.41;;;28.92;62.38
48200;BME280;33990;44.602;10.976;2023-08-21T12:01:09;101439.56;;;28.92;62.01
48200;BME280;33990;44.602;10.976;2023-08-21T12:03:38;101438.06;;;28.89;61.32
48200;BME280;33990;44.602;10.976;2023-08-21T12:06:07;101427.28;;;28.73;57.18
48200;BME280;33990;44.602;10.976;2023-08-21T12:08:36;101434.69;;;28.56;55.09
48200;BME280;33990;44.602;10.976;2023-08-21T12:11:03;101434.75;;;28.40;54.05
48200;BME280;33990;44.602;10.976;2023-08-21T12:13:31;101435.31;;;28.27;53.62
48200;BME280;33990;44.602;10.976;2023-08-21T12:16:02;101430.75;;;28.11;52.96
48200;BME280;33990;44.602;10.976;2023-08-21T12:18:30;101424.19;;;27.97;52.69
48200;BME280;33990;44.602;10.976;2023-08-21T12:20:57;101422.69;;;27.87;52.38
48200;BME280;33990;44.602;10.976;2023-08-21T12:23:25;101414.72;;;27.77;52.03
48200;BME280;33990;44.602;10.976;2023-08-21T12:25:52;101410.97;;;27.70;51.72
48200;BME280;33990;44.602;10.976;2023-08-21T12:28:20;101418.09;;;27.63;51.27
48200;BME280;33990;44.602;10.976;2023-08-21T12:30:47;101411.50;;;27.57;51.01
48200;BME280;33990;44.602;10.976;2023-08-21T12:33:14;101416.09;;;27.48;50.34
48200;BME280;33990;44.602;10.976;2023-08-21T12:35:51;101411.34;;;27.42;50.11
48200;BME280;33990;44.602;10.976;2023-08-21T12:38:19;101412.03;;;27.36;49.64
48200;BME280;33990;44.602;10.976;2023-08-21T12:40:48;101402.53;;;27.32;49.68
48200;BME280;33990;44.602;10.976;2023-08-21T12:43:15;101405.75;;;27.27;49.33
48200;BME280;33990;44.602;10.976;2023-08-21T12:45:43;101404.72;;;27.20;49.12
48200;BME280;33990;44.602;10.976;2023-08-21T12:48:11;101404.03;;;27.18;48.71
48200;BME280;33990;44.602;10.976;2023-08-21T12:50:38;101396.41;;;27.14;48.38
48200;BME280;33990;44.602;10.976;2023-08-21T12:53:06;101396.22;;;27.07;48.10
48200;BME280;33990;44.602;10.976;2023-08-21T12:55:33;101397.72;;;27.01;47.94
48200;BME280;33990;44.602;10.976;2023-08-21T12:58:00;101396.34;;;26.97;47.67
48200;BME280;33990;44.602;10.976;2023-08-21T13:00:28;101393.31;;;26.92;47.71